Time;durP1;ratioP1;P1;durP2;ratioP2;P2;SDS_P1;SDS_P2;PMS_P1;PMS_P2;Temp;Humidity;BMP_temperature;BMP_pressure;BME280_temperature;BME280_humidity;BME280_pressure;Samples;Min_cycle;Max_cycle;Signal;HPM_P1;HPM_P2
2023/01/17 00:00:56;;;;;;;3.85;1.92;;;;;;;5.23;100.00;97431.09;8327709;28;20045;-54
2023/01/17 00:10:18;;;;;;;1.80;1.63;;;;;;;5.22;100.00;97436.63;8326952;28;20033;-55
2023/01/17 00:13:38;;;;;;;2.42;1.30;;;;;;;5.14;100.00;97444.75;8326549;28;20571;-56
2023/01/17 00:17:38;;;;;;;3.55;1.60;;;;;;;5.11;100.00;97442.44;8327151;28;20438;-54
2023/01/17 00:26:02;;;;;;;3.28;1.15;;;;;;;5.21;100.00;97451.03;8326168;28;20037;-54
2023/01/17 01:34:29;;;;;;;4.50;0.95;;;;;;;4.85;98.19;97573.13;8381683;28;20047;-55
2023/01/17 01:38:30;;;;;;;4.25;0.90;;;;;;;4.81;97.66;97577.13;8381395;28;20046;-54
2023/01/17 01:42:31;;;;;;;2.33;0.60;;;;;;;4.80;96.56;97580.84;8378749;28;20040;-55
2023/01/17 01:46:37;;;;;;;1.52;0.52;;;;;;;4.72;96.75;97587.06;8381114;28;20115;-58
2023/01/17 01:50:37;;;;;;;0.60;0.60;;;;;;;4.72;96.00;97591.56;8381098;28;20114;-58
2023/01/17 01:54:45;;;;;;;4.63;1.08;;;;;;;4.75;94.42;97589.38;8378155;28;20037;-57
2023/01/17 01:58:49;;;;;;;3.97;1.00;;;;;;;4.80;93.99;97596.88;8391838;28;20036;-56
2023/01/17 02:02:53;;;;;;;5.05;1.25;;;;;;;4.76;94.65;97611.63;8341628;28;20048;-55
2023/01/17 02:06:59;;;;;;;;;;;;;;;4.80;96.39;97615.63;8327352;28;20056;-58
2023/01/17 02:11:00;;;;;;;5.43;2.63;;;;;;;4.83;97.19;97617.94;8325863;28;19917;-53
2023/01/17 02:15:04;;;;;;;10.20;3.67;;;;;;;4.84;97.83;97635.66;8323820;28;20044;-58
2023/01/17 02:19:44;;;;;;;8.57;3.23;;;;;;;4.75;99.04;97631.34;8325886;28;20121;-57
2023/01/17 02:24:16;;;;;;;8.13;3.53;;;;;;;4.43;99.94;97653.75;8356726;28;20410;-57
2023/01/17 02:28:56;;;;;;;4.00;3.17;;;;;;;4.31;99.58;97643.56;8356538;28;20049;-57
2023/01/17 02:33:10;;;;;;;6.82;3.60;;;;;;;4.32;99.05;97655.94;8355559;28;20049;-56
2023/01/17 02:37:19;;;;;;;9.10;3.70;;;;;;;4.38;98.62;97657.91;8356609;28;20037;-58
2023/01/17 02:41:24;;;;;;;5.90;3.72;;;;;;;4.43;97.92;97658.25;8357666;28;20033;-56
2023/01/17 02:45:25;;;;;;;12.13;4.40;;;;;;;4.48;97.10;97656.72;8358375;28;20045;-58
2023/01/17 02:49:30;;;;;;;8.98;3.70;;;;;;;4.47;97.37;97670.25;8356231;28;20111;-56
2023/01/17 02:53:56;;;;;;;6.35;3.40;;;;;;;4.44;96.82;97668.78;8355812;28;20094;-58
2023/01/17 03:02:56;;;;;;;10.43;4.03;;;;;;;4.38;95.61;97674.81;8314715;27;20367;-57
2023/01/17 03:07:01;;;;;;;10.68;3.58;;;;;;;4.38;95.51;97676.63;8317787;28;20053;-57
2023/01/17 03:11:02;;;;;;;5.18;2.97;;;;;;;4.37;94.92;97669.63;8317752;28;20068;-58
2023/01/17 03:15:08;;;;;;;9.27;3.25;;;;;;;4.42;93.93;97678.78;8317400;28;20056;-57
2023/01/17 03:19:08;;;;;;;6.35;3.40;;;;;;;4.47;93.56;97671.09;8332936;28;20042;-57
2023/01/17 03:23:09;;;;;;;3.40;2.95;;;;;;;4.46;94.05;97679.28;8316660;28;20072;-58
2023/01/17 03:27:09;;;;;;;8.77;3.38;;;;;;;4.43;92.70;97690.34;8315536;28;20045;-57
2023/01/17 03:31:15;;;;;;;10.82;4.20;;;;;;;4.47;91.66;97692.50;8316793;28;20048;-59
2023/01/17 03:35:16;;;;;;;9.35;3.58;;;;;;;4.53;90.12;97696.31;8312499;28;20029;-57
2023/01/17 03:39:16;;;;;;;9.40;3.25;;;;;;;4.54;90.70;97703.34;8316082;28;20121;-56
2023/01/17 03:43:16;;;;;;;8.45;3.22;;;;;;;4.56;90.52;97702.16;8316428;28;20046;-57
2023/01/17 03:47:17;;;;;;;11.30;3.53;;;;;;;4.55;90.79;97699.66;8316905;28;20067;-59
2023/01/17 03:51:18;;;;;;;7.93;3.05;;;;;;;4.55;90.32;97705.84;8315008;28;20045;-53
2023/01/17 03:55:18;;;;;;;8.25;3.38;;;;;;;4.54;89.97;97708.72;8316331;28;20109;-52
2023/01/17 03:59:18;;;;;;;10.52;3.90;;;;;;;4.52;89.97;97705.34;8316242;28;20065;-52
2023/01/17 04:03:19;;;;;;;8.63;3.70;;;;;;;4.51;90.12;97703.69;8315673;28;20072;-54
2023/01/17 04:07:19;;;;;;;8.48;3.80;;;;;;;4.48;89.95;97698.69;8315915;28;20091;-53
2023/01/17 04:11:20;;;;;;;8.35;3.67;;;;;;;4.48;89.87;97704.03;8308388;28;20030;-53
2023/01/17 04:15:21;;;;;;;10.93;4.15;;;;;;;4.43;89.74;97707.22;8294035;28;20084;-53
2023/01/17 04:19:21;;;;;;;9.43;4.85;;;;;;;4.32;89.28;97706.72;8292940;28;20121;-54
2023/01/17 04:23:22;;;;;;;9.50;4.88;;;;;;;4.20;89.37;97708.13;8293628;28;20042;-54
2023/01/17 04:27:22;;;;;;;8.90;5.18;;;;;;;4.06;90.72;97715.78;8308887;28;20510;-53
2023/01/17 04:31:23;;;;;;;10.02;5.55;;;;;;;3.94;91.40;97706.44;8293268;28;20494;-54
2023/01/17 04:35:23;;;;;;;9.27;4.82;;;;;;;3.88;91.31;97706.31;8294002;28;20040;-59
2023/01/17 04:39:24;;;;;;;12.60;5.38;;;;;;;3.76;92.26;97707.63;8291956;28;20034;-59
2023/01/17 04:43:24;;;;;;;9.27;5.47;;;;;;;3.68;92.56;97713.81;8291078;28;20128;-58
2023/01/17 04:47:24;;;;;;;10.43;5.78;;;;;;;3.60;92.83;97718.31;8291940;28;20038;-59
2023/01/17 04:51:25;;;;;;;10.60;5.55;;;;;;;3.58;92.92;97718.47;8292693;28;20056;-58
2023/01/17 04:55:26;;;;;;;6.07;4.93;;;;;;;3.60;92.78;97719.13;8291842;28;20037;-59
2023/01/17 04:59:26;;;;;;;14.05;6.00;;;;;;;3.49;93.52;97727.50;8292807;28;20037;-58
2023/01/17 05:03:28;;;;;;;13.40;5.70;;;;;;;3.41;93.93;97732.81;8291822;28;20180;-57
2023/01/17 05:07:28;;;;;;;6.78;5.03;;;;;;;3.45;95.12;97731.47;8292933;28;20041;-56
2023/01/17 05:11:29;;;;;;;8.10;5.30;;;;;;;3.60;95.45;97732.50;8292308;28;20037;-58
2023/01/17 05:15:29;;;;;;;10.02;5.78;;;;;;;3.64;93.95;97741.88;8291984;28;20041;-55
2023/01/17 05:19:30;;;;;;;9.48;5.85;;;;;;;3.74;93.27;97737.19;8292261;28;20030;-56
2023/01/17 05:23:31;;;;;;;9.13;5.50;;;;;;;3.78;92.98;97727.84;8288882;28;20120;-56
2023/01/17 05:27:32;;;;;;;9.60;5.60;;;;;;;3.73;92.17;97748.84;8291120;28;20049;-59
2023/01/17 05:31:32;;;;;;;12.10;5.72;;;;;;;3.69;92.34;97744.03;8288643;28;20049;-58
2023/01/17 05:35:33;;;;;;;11.38;5.50;;;;;;;3.66;93.08;97747.03;8273426;28;20050;-59
2023/01/17 05:39:33;;;;;;;13.23;5.93;;;;;;;3.64;93.42;97747.19;8289174;28;20115;-58
2023/01/17 05:43:33;;;;;;;9.95;6.30;;;;;;;3.61;94.78;97757.38;8276902;28;20077;-56
2023/01/17 05:47:34;;;;;;;10.90;5.97;;;;;;;3.45;94.32;97752.81;8282510;28;20125;-58
2023/01/17 05:51:36;;;;;;;12.57;6.20;;;;;;;3.37;94.97;97755.50;8276198;28;20491;-59
2023/01/17 05:55:38;;;;;;;15.00;6.65;;;;;;;3.41;95.33;97756.81;8269350;28;20490;-57
2023/01/17 05:59:38;;;;;;;18.63;6.30;;;;;;;3.38;96.00;97762.50;8287739;28;20091;-58
2023/01/17 06:03:39;;;;;;;11.43;5.50;;;;;;;3.46;95.20;97765.19;8282521;28;20053;-55
2023/01/17 06:07:42;;;;;;;9.50;6.07;;;;;;;3.56;94.83;97760.53;8272174;28;20042;-58
2023/01/17 06:11:42;;;;;;;10.23;5.47;;;;;;;3.62;94.71;97759.88;8286227;28;20097;-56
2023/01/17 06:15:43;;;;;;;10.75;5.72;;;;;;;3.76;94.90;97766.41;8280869;28;20042;-53
2023/01/17 06:19:44;;;;;;;10.93;5.53;;;;;;;3.69;94.26;97771.56;8289484;28;20091;-58
2023/01/17 06:23:44;;;;;;;13.25;6.70;;;;;;;3.71;93.73;97774.91;8287136;28;20439;-58
2023/01/17 06:27:45;;;;;;;12.15;6.45;;;;;;;3.67;94.82;97768.25;8288291;28;20061;-58
2023/01/17 06:31:45;;;;;;;10.35;5.13;;;;;;;3.71;94.51;97774.91;8266826;28;20038;-58
2023/01/17 06:35:47;;;;;;;9.70;5.60;;;;;;;3.72;94.22;97781.09;8269128;28;20034;-59
2023/01/17 06:39:48;;;;;;;10.00;4.93;;;;;;;4.07;96.96;97776.28;8264588;28;20070;-60
2023/01/17 06:43:48;;;;;;;12.57;5.38;;;;;;;3.86;93.59;97783.94;8262910;28;20428;-59
2023/01/17 06:47:49;;;;;;;8.95;4.97;;;;;;;3.84;94.69;97785.09;8273525;28;20160;-57
2023/01/17 06:51:49;;;;;;;7.95;5.18;;;;;;;3.76;94.80;97791.25;8269369;28;20042;-56
2023/01/17 06:55:51;;;;;;;16.42;5.28;;;;;;;3.71;94.19;97780.25;8265039;28;20368;-60
2023/01/17 06:59:51;;;;;;;9.93;5.32;;;;;;;3.75;94.05;97781.59;8252494;28;20370;-59
2023/01/17 07:03:52;;;;;;;11.75;4.60;;;;;;;3.73;92.51;97783.56;8260877;28;20050;-60
2023/01/17 07:07:53;;;;;;;9.90;5.93;;;;;;;3.77;92.57;97773.41;8277592;28;20057;-59
2023/01/17 07:11:58;;;;;;;9.98;5.35;;;;;;;3.75;91.65;97775.41;8277435;28;20077;-57
2023/01/17 07:16:00;;;;;;;7.32;5.00;;;;;;;3.71;91.13;97774.91;8277235;28;20042;-58
2023/01/17 07:20:00;;;;;;;7.80;4.88;;;;;;;3.61;90.49;97778.72;8265856;28;20124;-56
2023/01/17 07:24:01;;;;;;;6.10;4.55;;;;;;;3.51;90.49;97784.22;8274202;28;20053;-60
2023/01/17 07:28:01;;;;;;;11.10;5.78;;;;;;;3.42;92.66;97779.84;8262287;28;20072;-59
2023/01/17 07:32:02;;;;;;;11.65;5.75;;;;;;;3.34;93.53;97782.50;8267747;28;20054;-59
2023/01/17 07:36:06;;;;;;;11.40;6.35;;;;;;;3.26;94.50;97790.47;8270014;28;20530;-59
2023/01/17 07:40:07;;;;;;;10.48;6.47;;;;;;;3.23;95.53;97785.47;8274269;28;20061;-58
2023/01/17 07:44:09;;;;;;;10.45;7.10;;;;;;;3.07;93.48;97795.25;8272742;28;20034;-59
2023/01/17 07:48:11;;;;;;;10.52;7.30;;;;;;;3.01;94.52;97791.41;8278489;28;20115;-58
2023/01/17 07:52:11;;;;;;;16.83;6.80;;;;;;;2.93;95.17;97803.88;8282815;28;20044;-54
2023/01/17 07:56:12;;;;;;;13.25;6.40;;;;;;;2.76;97.18;97796.75;8259322;28;20039;-55
2023/01/17 08:00:13;;;;;;;11.93;6.90;;;;;;;2.52;98.77;97805.47;8228672;28;20083;-55
2023/01/17 08:04:13;;;;;;;13.13;6.88;;;;;;;2.77;98.05;97815.28;8274103;28;20034;-54
2023/01/17 08:08:13;;;;;;;8.68;6.03;;;;;;;2.95;96.87;97797.38;8266796;28;20479;-54
2023/01/17 08:12:15;;;;;;;11.35;5.65;;;;;;;3.10;95.75;97801.09;8284212;28;20120;-54
2023/01/17 08:16:15;;;;;;;7.68;5.65;;;;;;;3.20;94.83;97807.16;8278631;28;20079;-53
2023/01/17 08:20:16;;;;;;;8.70;3.97;;;;;;;3.33;93.89;97802.19;8269829;28;20065;-54
2023/01/17 08:24:16;;;;;;;16.92;8.30;;;;;;;3.52;94.62;97801.94;8280925;28;20177;-53
2023/01/17 08:28:18;;;;;;;27.13;12.93;;;;;;;3.66;93.09;97803.13;8289342;28;20049;-54
2023/01/17 08:32:20;;;;;;;9.07;5.78;;;;;;;3.83;92.17;97794.13;8279759;28;20092;-55
2023/01/17 08:36:20;;;;;;;13.30;4.93;;;;;;;3.93;91.93;97794.78;8281035;28;20042;-54
2023/01/17 08:40:21;;;;;;;7.43;4.88;;;;;;;3.95;91.10;97790.97;8289101;28;20046;-53
2023/01/17 08:44:22;;;;;;;10.13;4.75;;;;;;;4.03;90.94;97782.13;8271789;28;20054;-53
2023/01/17 08:48:22;;;;;;;6.13;4.60;;;;;;;4.09;88.99;97787.63;8289979;28;20034;-55
2023/01/17 08:52:23;;;;;;;5.78;4.68;;;;;;;4.33;89.29;97785.97;8292198;28;20056;-51
2023/01/17 08:56:24;;;;;;;14.60;4.40;;;;;;;5.38;84.92;97800.72;8280487;28;20492;-54
2023/01/17 09:00:27;;;;;;;4.80;3.95;;;;;;;7.03;77.54;97797.06;8260027;28;20039;-55
2023/01/17 09:04:27;;;;;;;8.65;3.85;;;;;;;8.13;72.56;97798.63;8268205;28;20558;-55
2023/01/17 09:08:28;;;;;;;43.28;13.25;;;;;;;8.77;67.50;97794.88;8268019;28;20454;-53
2023/01/17 09:12:32;;;;;;;8.88;4.15;;;;;;;8.50;67.62;97803.75;8300205;28;20069;-53
2023/01/17 09:16:32;;;;;;;6.00;3.92;;;;;;;8.54;67.39;97799.69;8272102;28;20030;-55
2023/01/17 09:20:33;;;;;;;9.38;3.67;;;;;;;9.24;65.71;97798.50;8280437;28;20054;-54
2023/01/17 09:24:33;;;;;;;18.92;7.75;;;;;;;9.50;65.75;97803.22;8270668;28;20042;-55
2023/01/17 09:28:39;;;;;;;14.13;6.25;;;;;;;10.15;62.92;97800.78;8262381;28;20042;-54
2023/01/17 09:32:40;;;;;;;7.95;3.97;;;;;;;11.10;60.47;97799.38;8258384;28;20100;-54
2023/01/17 09:36:41;;;;;;;6.97;3.92;;;;;;;11.07;60.83;97805.19;8270126;28;20129;-53
2023/01/17 09:40:46;;;;;;;4.35;3.03;;;;;;;11.40;58.52;97807.84;8278063;28;20050;-54
2023/01/17 09:44:52;;;;;;;6.18;3.13;;;;;;;11.26;59.64;97803.53;8284322;28;20037;-55
2023/01/17 09:49:02;;;;;;;3.63;2.00;;;;;;;12.16;57.20;97806.09;8285509;28;20161;-53
2023/01/17 09:53:06;;;;;;;4.88;2.50;;;;;;;11.97;56.90;97807.03;8284777;28;20373;-54
2023/01/17 09:57:37;;;;;;;6.47;3.05;;;;;;;12.66;55.88;97807.88;8284135;28;20060;-57
2023/01/17 10:01:54;;;;;;;6.57;3.08;;;;;;;12.43;56.58;97810.31;8281983;28;20038;-59
2023/01/17 10:06:22;;;;;;;6.47;2.67;;;;;;;12.76;55.66;97813.63;8285135;28;20155;-59
2023/01/17 10:10:54;;;;;;;4.68;3.00;;;;;;;12.42;55.12;97822.22;8268292;28;20039;-58
2023/01/17 10:15:22;;;;;;;5.82;2.83;;;;;;;12.92;55.31;97818.50;8257647;28;20054;-59
2023/01/17 10:19:45;;;;;;;6.40;2.70;;;;;;;12.84;55.37;97811.47;8268858;28;20080;-59
2023/01/17 10:24:15;;;;;;;6.45;2.92;;;;;;;13.37;54.26;97820.00;8268098;28;20038;-59
2023/01/17 10:28:24;;;;;;;11.95;2.90;;;;;;;13.32;54.37;97819.84;8262421;28;20038;-59
2023/01/17 10:32:28;;;;;;;10.45;3.55;;;;;;;14.31;53.28;97813.06;8256756;28;20041;-59
2023/01/17 10:36:33;;;;;;;4.72;3.15;;;;;;;13.17;53.94;97811.22;8267729;28;20069;-59
2023/01/17 10:40:56;;;;;;;6.00;2.70;;;;;;;14.24;53.10;97804.16;8285369;28;20049;-58
2023/01/17 10:45:06;;;;;;;6.63;2.60;;;;;;;14.71;51.83;97805.16;8280664;28;20525;-58
2023/01/17 10:49:15;;;;;;;4.60;2.55;;;;;;;13.54;53.66;97807.50;8258741;28;20065;-55
2023/01/17 10:53:45;;;;;;;6.18;3.30;;;;;;;14.44;53.21;97799.28;8263678;28;20039;-57
2023/01/17 10:57:47;;;;;;;6.55;2.92;;;;;;;13.45;54.89;97803.44;8264719;28;20049;-57
2023/01/17 11:01:48;;;;;;;6.78;2.85;;;;;;;13.32;55.21;97809.00;8269647;28;20562;-57
2023/01/17 11:06:25;;;;;;;8.95;2.58;;;;;;;11.39;58.55;97803.47;8276675;28;20550;-58
2023/01/17 11:10:47;;;;;;;8.88;2.25;;;;;;;12.20;57.71;97794.63;8271309;28;20343;-58
2023/01/17 11:15:16;;;;;;;9.52;2.17;;;;;;;11.97;57.14;97790.81;8255707;28;20042;-58
2023/01/17 11:19:27;;;;;;;9.88;1.83;;;;;;;11.67;56.78;97794.06;8260788;28;20045;-56
2023/01/17 11:23:32;;;;;;;6.47;1.85;;;;;;;11.48;57.43;97786.81;8261415;28;20045;-56
2023/01/17 11:27:37;;;;;;;4.72;1.77;;;;;;;10.06;61.38;97793.88;8272675;28;20034;-57
2023/01/17 11:31:37;;;;;;;6.93;1.42;;;;;;;10.25;60.90;97779.66;8262420;28;20125;-54
2023/01/17 11:35:43;;;;;;;10.95;1.75;;;;;;;10.58;59.94;97766.97;8273423;28;20045;-54
2023/01/17 11:39:46;;;;;;;6.75;1.42;;;;;;;11.08;58.59;97779.84;8271530;28;20327;-54
2023/01/17 11:43:52;;;;;;;8.23;1.60;;;;;;;11.42;58.61;97774.16;8274097;28;20456;-54
2023/01/17 11:52:24;;;;;;;9.23;1.60;;;;;;;12.12;56.82;97775.09;8307100;28;20911;-53
2023/01/17 12:00:46;;;;;;;12.55;1.70;;;;;;;11.65;56.94;97777.22;8374950;27;20850;-58
2023/01/17 12:05:26;;;;;;;8.13;2.00;;;;;;;9.12;61.95;97767.75;8380646;27;20037;-56
2023/01/17 12:09:39;;;;;;;12.43;1.98;;;;;;;7.75;66.82;97768.44;8380705;28;20519;-58
2023/01/17 12:14:16;;;;;;;8.07;1.88;;;;;;;7.17;69.63;97765.88;8382917;28;20043;-59
2023/01/17 12:18:43;;;;;;;10.85;1.67;;;;;;;6.80;70.04;97753.34;8362226;28;20506;-57
2023/01/17 12:23:12;;;;;;;6.80;1.75;;;;;;;6.91;71.09;97750.22;8398755;27;20037;-58
2023/01/17 12:27:45;;;;;;;5.90;1.65;;;;;;;6.71;70.03;97748.28;8403432;27;20075;-55
2023/01/17 12:32:02;;;;;;;8.77;1.90;;;;;;;6.66;71.83;97740.78;8381786;28;20051;-57
2023/01/17 12:36:31;;;;;;;7.10;1.67;;;;;;;6.43;72.83;97737.31;8395032;28;20544;-57
2023/01/17 12:40:43;;;;;;;10.57;2.80;;;;;;;6.44;72.96;97730.94;8396692;28;20079;-56
2023/01/17 12:45:08;;;;;;;9.32;3.67;;;;;;;6.25;73.09;97731.44;8391311;28;20036;-54
2023/01/17 12:49:48;;;;;;;10.75;2.13;;;;;;;6.21;74.00;97723.94;8394498;28;20442;-57
2023/01/17 12:58:18;;;;;;;7.50;2.50;;;;;;;6.24;73.10;97724.41;8398488;27;20392;-56
2023/01/17 13:02:44;;;;;;;7.45;2.28;;;;;;;6.39;75.45;97717.22;8376049;27;20418;-58
2023/01/17 13:06:57;;;;;;;8.77;2.15;;;;;;;6.54;72.55;97715.41;8378986;28;20036;-54
2023/01/17 13:11:09;;;;;;;10.32;3.00;;;;;;;6.61;74.16;97727.06;8396757;27;20044;-54
2023/01/17 13:15:17;;;;;;;11.63;2.33;;;;;;;6.68;72.14;97736.03;8386250;28;20051;-53
2023/01/17 13:19:57;;;;;;;13.43;2.88;;;;;;;6.65;72.52;97738.28;8397862;28;20490;-53
2023/01/17 13:28:29;;;;;;;9.05;1.30;;;;;;;6.85;70.19;97744.75;8359570;27;20346;-54
2023/01/17 13:33:01;;;;;;;5.25;1.38;;;;;;;6.76;66.56;97746.69;8317456;28;20042;-54
2023/01/17 13:37:26;;;;;;;14.77;2.05;;;;;;;6.71;65.50;97743.72;8318798;28;20457;-52
2023/01/17 13:45:55;;;;;;;6.20;1.30;;;;;;;7.30;63.42;97744.53;8346195;27;20375;-58
2023/01/17 13:49:56;;;;;;;6.38;1.30;;;;;;;6.97;63.30;97745.94;8318545;28;20041;-59
2023/01/17 13:53:56;;;;;;;4.07;1.00;;;;;;;6.85;63.35;97745.59;8348835;28;20052;-56
2023/01/17 13:57:57;;;;;;;5.82;1.27;;;;;;;6.80;64.77;97742.59;8355658;28;20087;-59
2023/01/17 14:01:57;;;;;;;8.00;1.20;;;;;;;6.66;64.64;97740.78;8338219;28;20075;-55
2023/01/17 14:05:58;;;;;;;5.93;1.10;;;;;;;6.74;66.43;97734.47;8340550;28;20472;-56
2023/01/17 14:09:58;;;;;;;3.95;1.15;;;;;;;6.91;62.42;97731.41;8306670;28;20050;-55
2023/01/17 14:14:35;;;;;;;3.20;0.93;;;;;;;7.05;62.67;97738.63;8315413;28;20045;-54
2023/01/17 14:22:53;;;;;;;4.88;1.35;;;;;;;6.72;62.31;97740.03;8369124;27;20579;-52
2023/01/17 14:26:58;;;;;;;5.40;1.05;;;;;;;6.46;63.38;97739.63;8352117;28;20036;-54
2023/01/17 14:31:01;;;;;;;3.65;0.80;;;;;;;6.34;64.08;97745.63;8339759;28;20430;-55
2023/01/17 14:35:04;;;;;;;4.97;1.10;;;;;;;6.35;64.62;97742.78;8333157;28;20113;-53
2023/01/17 14:39:19;;;;;;;4.25;1.25;;;;;;;6.44;64.08;97741.69;8337629;28;20293;-55
2023/01/17 14:43:23;;;;;;;4.57;0.98;;;;;;;6.54;61.71;97736.88;8321594;28;20059;-54
2023/01/17 14:47:27;;;;;;;5.93;1.80;;;;;;;6.55;62.71;97732.31;8314315;28;20046;-54
2023/01/17 14:51:33;;;;;;;4.55;1.77;;;;;;;6.69;62.69;97739.56;8328418;28;20439;-62
2023/01/17 14:55:34;;;;;;;1.42;0.88;;;;;;;6.55;62.13;97743.91;8346225;28;20049;-57
2023/01/17 14:59:34;;;;;;;2.45;1.05;;;;;;;6.52;62.03;97738.06;8329585;28;20503;-59
2023/01/17 15:03:44;;;;;;;3.38;1.00;;;;;;;6.41;61.08;97736.66;8329630;28;20049;-56
2023/01/17 15:07:48;;;;;;;2.85;0.95;;;;;;;6.29;60.99;97731.91;8349517;28;20715;-59
2023/01/17 15:11:51;;;;;;;3.25;1.30;;;;;;;6.16;61.83;97732.53;8368572;28;20039;-59
2023/01/17 15:16:03;;;;;;;3.08;0.70;;;;;;;6.04;61.68;97740.16;8356594;28;20038;-59
2023/01/17 15:20:08;;;;;;;3.05;1.38;;;;;;;6.09;64.55;97736.94;8335533;28;20068;-58
2023/01/17 15:24:21;;;;;;;4.57;1.42;;;;;;;5.84;64.17;97743.53;8337488;28;20200;-55
2023/01/17 15:28:22;;;;;;;12.07;1.67;;;;;;;5.77;63.99;97742.53;8327494;28;20029;-56
2023/01/17 15:32:26;;;;;;;6.80;2.80;;;;;;;5.59;65.03;97747.34;8328235;28;20042;-54
2023/01/17 15:36:31;;;;;;;10.13;1.85;;;;;;;5.59;64.98;97748.19;8299307;28;20045;-59
2023/01/17 15:40:41;;;;;;;9.90;2.70;;;;;;;5.05;69.54;97742.94;8307449;28;20076;-57
2023/01/17 15:44:42;;;;;;;5.95;1.45;;;;;;;5.04;72.82;97746.63;8306970;28;20124;-58
2023/01/17 15:48:43;;;;;;;4.32;1.38;;;;;;;4.92;71.73;97745.34;8306999;28;20037;-59
2023/01/17 15:52:49;;;;;;;5.70;1.48;;;;;;;4.75;72.62;97738.38;8329334;28;20052;-57
2023/01/17 15:57:17;;;;;;;9.27;1.65;;;;;;;4.56;74.19;97738.78;8304663;28;20041;-55
2023/01/17 16:01:24;;;;;;;7.50;1.30;;;;;;;4.08;75.96;97745.88;8301849;28;20045;-58
2023/01/17 16:05:31;;;;;;;5.68;2.10;;;;;;;4.10;76.90;97748.38;8299739;28;20061;-57
2023/01/17 16:09:42;;;;;;;2.72;1.77;;;;;;;3.92;77.22;97751.22;8289844;28;20084;-58
2023/01/17 16:13:46;;;;;;;10.63;1.60;;;;;;;3.87;77.53;97764.22;8289117;28;20067;-56
2023/01/17 16:17:50;;;;;;;3.78;1.10;;;;;;;3.84;75.41;97769.06;8290562;28;20510;-57
2023/01/17 16:21:50;;;;;;;5.03;1.70;;;;;;;3.78;77.33;97770.56;8290257;28;20038;-50
2023/01/17 16:25:52;;;;;;;8.18;2.00;;;;;;;3.65;78.94;97786.25;8299574;28;20044;-52
2023/01/17 16:29:53;;;;;;;6.25;2.88;;;;;;;3.43;79.47;97781.53;8306415;28;20046;-53
2023/01/17 16:33:53;;;;;;;7.78;2.17;;;;;;;3.62;81.13;97794.59;8304303;28;20045;-52
2023/01/17 16:38:04;;;;;;;10.70;2.42;;;;;;;3.55;80.71;97790.91;8290238;28;20057;-52
2023/01/17 16:42:04;;;;;;;7.70;2.55;;;;;;;3.57;80.55;97788.91;8289320;28;20041;-51
2023/01/17 16:46:05;;;;;;;6.70;2.10;;;;;;;3.39;81.47;97790.84;8289166;28;20118;-51
2023/01/17 16:50:06;;;;;;;9.05;2.47;;;;;;;3.27;83.35;97796.66;8289821;28;20058;-51
2023/01/17 16:54:07;;;;;;;11.55;2.42;;;;;;;2.92;84.61;97808.34;8291365;28;20083;-50
2023/01/17 16:58:08;;;;;;;25.70;6.75;;;;;;;2.88;85.56;97815.00;8304217;28;20116;-52
2023/01/17 17:02:09;;;;;;;11.82;3.53;;;;;;;2.87;86.49;97810.66;8304684;28;20121;-51
2023/01/17 17:06:10;;;;;;;13.38;4.55;;;;;;;2.86;87.28;97814.31;8293494;28;20045;-52
2023/01/17 17:10:13;;;;;;;14.38;4.78;;;;;;;2.56;89.06;97812.16;8289857;28;20038;-55
2023/01/17 17:14:14;;;;;;;19.43;4.30;;;;;;;2.45;90.40;97815.09;8294312;28;20045;-53
2023/01/17 17:18:16;;;;;;;15.43;3.65;;;;;;;2.55;90.29;97820.28;8323791;28;20048;-53
2023/01/17 17:22:17;;;;;;;9.05;4.30;;;;;;;2.34;89.84;97833.13;8320793;28;20107;-52
2023/01/17 17:26:17;;;;;;;8.48;3.10;;;;;;;2.41;90.62;97832.34;8338330;28;20087;-54
2023/01/17 17:30:18;;;;;;;23.55;9.00;;;;;;;2.50;90.46;97839.44;8322612;28;20179;-53
2023/01/17 17:34:18;;;;;;;24.80;8.20;;;;;;;2.26;90.15;97830.44;8319338;28;20469;-57
2023/01/17 17:38:18;;;;;;;12.23;3.85;;;;;;;2.01;91.94;97838.22;8318022;28;20029;-56
2023/01/17 17:42:19;;;;;;;13.93;4.10;;;;;;;1.82;93.16;97840.19;8310171;28;20033;-57
2023/01/17 17:46:21;;;;;;;13.25;4.95;;;;;;;1.81;93.30;97841.19;8306685;28;20065;-57
2023/01/17 17:50:22;;;;;;;6.93;3.65;;;;;;;1.73;93.65;97846.41;8289497;28;20038;-55
2023/01/17 17:54:23;;;;;;;18.48;4.00;;;;;;;1.74;93.87;97840.13;8296153;28;20487;-58
2023/01/17 17:58:24;;;;;;;20.50;5.53;;;;;;;1.84;92.87;97857.72;8321137;28;20080;-58
2023/01/17 18:02:24;;;;;;;10.02;3.70;;;;;;;1.87;94.60;97861.88;8330853;28;20127;-50
2023/01/17 18:06:25;;;;;;;12.25;3.95;;;;;;;1.95;93.84;97864.59;8320390;28;20095;-52
2023/01/17 18:10:26;;;;;;;6.15;3.42;;;;;;;1.85;92.86;97861.19;8311336;28;20037;-54
2023/01/17 18:14:27;;;;;;;10.65;2.85;;;;;;;1.80;93.60;97858.16;8316098;28;20045;-53
2023/01/17 18:18:27;;;;;;;5.30;3.00;;;;;;;1.60;95.13;97869.91;8383825;28;20033;-53
2023/01/17 18:22:27;;;;;;;10.55;3.70;;;;;;;1.42;95.03;97877.03;8347155;28;20047;-53
2023/01/17 18:26:32;;;;;;;11.38;3.90;;;;;;;1.57;96.44;97886.19;8319330;28;20034;-53
2023/01/17 18:30:37;;;;;;;15.15;4.57;;;;;;;1.53;95.72;97884.81;8298959;28;20125;-53
2023/01/17 18:34:40;;;;;;;14.30;5.57;;;;;;;1.76;94.92;97886.06;8298141;28;20042;-52
2023/01/17 18:38:45;;;;;;;13.27;5.25;;;;;;;1.64;95.04;97887.25;8298346;28;20037;-52
2023/01/17 18:42:47;;;;;;;23.63;10.30;;;;;;;1.27;94.60;97889.13;8313921;28;20048;-53
2023/01/17 18:46:49;;;;;;;22.33;7.13;;;;;;;1.15;96.03;97890.31;8302447;28;20049;-52
2023/01/17 18:51:08;;;;;;;19.75;9.60;;;;;;;1.23;96.83;97898.41;8310296;28;20479;-51
2023/01/17 18:55:08;;;;;;;26.52;10.43;;;;;;;1.22;95.10;97902.06;8304656;28;20554;-52
2023/01/17 18:59:11;;;;;;;25.10;10.55;;;;;;;1.39;95.11;97903.94;8290793;28;20643;-49
2023/01/17 19:03:12;;;;;;;23.70;10.38;;;;;;;1.59;96.45;97906.34;8309754;28;20042;-52
2023/01/17 19:07:12;;;;;;;24.20;10.20;;;;;;;1.33;95.24;97899.19;8323841;28;20037;-52
2023/01/17 19:11:13;;;;;;;21.92;10.90;;;;;;;1.00;95.30;97907.72;8321320;28;20049;-50
2023/01/17 19:15:13;;;;;;;23.05;12.00;;;;;;;1.01;95.91;97906.75;8321598;28;20044;-50
2023/01/17 19:19:14;;;;;;;34.55;14.10;;;;;;;1.07;95.33;97922.97;8321798;28;20034;-52
2023/01/17 19:23:15;;;;;;;25.38;11.38;;;;;;;0.91;96.22;97919.25;8322824;28;20053;-52
2023/01/17 19:27:17;;;;;;;29.65;12.73;;;;;;;1.02;96.16;97927.03;8321756;28;20045;-53
2023/01/17 19:31:21;;;;;;;33.15;14.23;;;;;;;1.05;96.17;97932.06;8320883;28;20470;-53
2023/01/17 19:35:22;;;;;;;41.15;16.77;;;;;;;1.07;96.38;97925.63;8323091;28;20526;-52
2023/01/17 19:39:24;;;;;;;29.23;14.32;;;;;;;1.20;98.48;97931.47;8323845;28;20038;-51
2023/01/17 19:43:24;;;;;;;31.48;12.38;;;;;;;1.18;97.78;97935.25;8321803;28;20599;-52
2023/01/17 19:47:25;;;;;;;29.85;12.98;;;;;;;1.00;97.86;97952.94;8321797;28;20426;-51
2023/01/17 19:51:26;;;;;;;28.42;12.45;;;;;;;0.78;98.16;97945.28;8316409;28;20482;-52
2023/01/17 19:55:26;;;;;;;34.35;12.07;;;;;;;0.89;100.00;97953.13;8313789;28;20048;-52
2023/01/17 19:59:27;;;;;;;30.88;11.80;;;;;;;0.65;98.34;97956.25;8313631;28;20049;-52
2023/01/17 20:03:28;;;;;;;26.55;11.85;;;;;;;0.73;99.24;97968.81;8314712;28;20045;-53
2023/01/17 20:07:30;;;;;;;34.38;12.50;;;;;;;0.77;98.94;97964.91;8315747;28;20044;-54
2023/01/17 20:11:30;;;;;;;28.42;10.93;;;;;;;0.87;99.98;97971.88;8328839;28;20563;-52
2023/01/17 20:15:32;;;;;;;27.23;10.95;;;;;;;0.40;97.66;97987.84;8334785;28;20034;-53
2023/01/17 20:19:33;;;;;;;54.00;20.77;;;;;;;0.48;98.87;97986.16;8311868;28;20060;-54
2023/01/17 20:23:35;;;;;;;37.95;14.77;;;;;;;0.82;100.00;97995.38;8315222;28;20042;-51
2023/01/17 20:27:36;;;;;;;34.97;13.75;;;;;;;0.72;99.48;97993.72;8304179;28;20049;-54
2023/01/17 20:31:39;;;;;;;25.92;12.18;;;;;;;0.29;98.43;97999.47;8310860;28;20045;-51
2023/01/17 20:35:39;;;;;;;23.52;9.45;;;;;;;0.41;100.00;97989.53;8322139;28;20060;-54
2023/01/17 20:39:40;;;;;;;25.73;9.88;;;;;;;0.33;100.00;97992.88;8322184;28;20045;-54
2023/01/17 20:43:42;;;;;;;25.25;9.32;;;;;;;0.38;100.00;98003.09;8321561;28;20045;-52
2023/01/17 20:47:42;;;;;;;24.52;10.48;;;;;;;0.39;100.00;98000.28;8321781;28;20061;-51
2023/01/17 20:51:44;;;;;;;25.80;11.73;;;;;;;0.24;99.71;98011.47;8320901;28;20048;-53
2023/01/17 20:55:44;;;;;;;34.08;12.88;;;;;;;0.05;99.28;98014.94;8305988;28;20091;-55
2023/01/17 20:59:47;;;;;;;26.52;12.50;;;;;;;0.18;100.00;98017.34;8314822;28;20072;-51
2023/01/17 21:03:50;;;;;;;29.17;12.65;;;;;;;0.18;100.00;98017.34;8321794;28;20049;-51